sensor_id;sensor_type;location;lat;lon;timestamp;temperature;humidity
22192;DHT22;11261;52.456;10.850;2023-06-04T00:00:52;11.60;89.50
22192;DHT22;11261;52.456;10.850;2023-06-04T00:03:20;11.50;89.90
22192;DHT22;11261;52.456;10.850;2023-06-04T00:05:49;11.60;90.70
22192;DHT22;11261;52.456;10.850;2023-06-04T00:08:17;11.60;91.40
22192;DHT22;11261;52.456;10.850;2023-06-04T00:10:45;11.50;91.80
22192;DHT22;11261;52.456;10.850;2023-06-04T00:13:13;10.90;92.50
22192;DHT22;11261;52.456;10.850;2023-06-04T00:15:43;10.80;93.30
22192;DHT22;11261;52.456;10.850;2023-06-04T00:18:12;10.60;94.30
22192;DHT22;11261;52.456;10.850;2023-06-04T00:20:40;10.80;93.90
22192;DHT22;11261;52.456;10.850;2023-06-04T00:23:09;11.00;93.70
22192;DHT22;11261;52.456;10.850;2023-06-04T00:25:37;11.10;93.20
22192;DHT22;11261;52.456;10.850;2023-06-04T00:28:06;11.10;94.20
22192;DHT22;11261;52.456;10.850;2023-06-04T00:30:34;11.00;94.20
22192;DHT22;11261;52.456;10.850;2023-06-04T00:33:04;10.90;92.40
22192;DHT22;11261;52.456;10.850;2023-06-04T00:35:33;11.00;93.00
22192;DHT22;11261;52.456;10.850;2023-06-04T00:38:01;11.00;93.80
22192;DHT22;11261;52.456;10.850;2023-06-04T00:40:29;10.90;93.90
22192;DHT22;11261;52.456;10.850;2023-06-04T00:42:58;10.80;94.30
22192;DHT22;11261;52.456;10.850;2023-06-04T00:45:26;10.80;92.70
22192;DHT22;11261;52.456;10.850;2023-06-04T00:47:58;10.80;94.40
22192;DHT22;11261;52.456;10.850;2023-06-04T00:50:28;10.80;94.50
22192;DHT22;11261;52.456;10.850;2023-06-04T00:52:57;10.70;94.90
22192;DHT22;11261;52.456;10.850;2023-06-04T00:55:25;10.70;95.10
22192;DHT22;11261;52.456;10.850;2023-06-04T00:57:54;10.70;95.50
22192;DHT22;11261;52.456;10.850;2023-06-04T01:00:22;10.60;94.80
22192;DHT22;11261;52.456;10.850;2023-06-04T01:02:52;10.50;95.00
22192;DHT22;11261;52.456;10.850;2023-06-04T01:05:29;10.50;95.50
22192;DHT22;11261;52.456;10.850;2023-06-04T01:08:01;10.40;95.90
22192;DHT22;11261;52.456;10.850;2023-06-04T01:10:29;10.40;96.30
22192;DHT22;11261;52.456;10.850;2023-06-04T01:12:58;10.30;96.20
22192;DHT22;11261;52.456;10.850;2023-06-04T01:15:26;10.40;96.60
22192;DHT22;11261;52.456;10.850;2023-06-04T01:17:58;10.20;96.70
22192;DHT22;11261;52.456;10.850;2023-06-04T01:20:35;10.20;97.50
22192;DHT22;11261;52.456;10.850;2023-06-04T01:23:35;10.30;97.80
22192;DHT22;11261;52.456;10.850;2023-06-04T01:26:06;10.30;97.00
22192;DHT22;11261;52.456;10.850;2023-06-04T01:28:35;10.30;97.40
22192;DHT22;11261;52.456;10.850;2023-06-04T01:31:04;10.20;97.50
22192;DHT22;11261;52.456;10.850;2023-06-04T01:33:35;10.20;97.90
22192;DHT22;11261;52.456;10.850;2023-06-04T01:36:05;10.20;98.00
22192;DHT22;11261;52.456;10.850;2023-06-04T01:38:37;10.10;97.80
22192;DHT22;11261;52.456;10.850;2023-06-04T01:41:05;10.00;98.40
22192;DHT22;11261;52.456;10.850;2023-06-04T01:43:34;9.90;98.80
22192;DHT22;11261;52.456;10.850;2023-06-04T01:46:02;9.90;98.40
22192;DHT22;11261;52.456;10.850;2023-06-04T01:48:31;9.80;98.80
22192;DHT22;11261;52.456;10.850;2023-06-04T01:51:00;9.80;98.80
22192;DHT22;11261;52.456;10.850;2023-06-04T01:53:30;9.80;98.60
22192;DHT22;11261;52.456;10.850;2023-06-04T01:55:59;9.90;98.90
22192;DHT22;11261;52.456;10.850;2023-06-04T01:58:28;9.80;99.10
22192;DHT22;11261;52.456;10.850;2023-06-04T02:00:58;9.70;99.20
22192;DHT22;11261;52.456;10.850;2023-06-04T02:03:30;9.70;99.20
22192;DHT22;11261;52.456;10.850;2023-06-04T02:06:04;9.70;99.30
22192;DHT22;11261;52.456;10.850;2023-06-04T02:08:35;9.60;99.80
22192;DHT22;11261;52.456;10.850;2023-06-04T02:11:04;9.60;99.90
22192;DHT22;11261;52.456;10.850;2023-06-04T02:13:32;9.50;99.90
22192;DHT22;11261;52.456;10.850;2023-06-04T02:16:00;9.50;99.90
22192;DHT22;11261;52.456;10.850;2023-06-04T02:18:29;9.50;99.90
22192;DHT22;11261;52.456;10.850;2023-06-04T02:20:57;9.50;99.90
22192;DHT22;11261;52.456;10.850;2023-06-04T02:23:26;9.50;99.90
22192;DHT22;11261;52.456;10.850;2023-06-04T02:25:55;9.50;99.90
22192;DHT22;11261;52.456;10.850;2023-06-04T02:28:24;9.40;99.90
22192;DHT22;11261;52.456;10.850;2023-06-04T02:30:52;9.40;99.90
22192;DHT22;11261;52.456;10.850;2023-06-04T02:33:21;9.30;99.90
22192;DHT22;11261;52.456;10.850;2023-06-04T02:35:49;9.30;99.90
22192;DHT22;11261;52.456;10.850;2023-06-04T02:38:18;9.30;99.90
22192;DHT22;11261;52.456;10.850;2023-06-04T02:40:46;9.20;99.90
22192;DHT22;11261;52.456;10.850;2023-06-04T02:43:16;9.20;99.90
22192;DHT22;11261;52.456;10.850;2023-06-04T02:45:44;9.10;99.90
22192;DHT22;11261;52.456;10.850;2023-06-04T02:48:13;9.10;99.90
22192;DHT22;11261;52.456;10.850;2023-06-04T02:50:41;9.10;99.90
22192;DHT22;11261;52.456;10.850;2023-06-04T02:53:10;9.00;99.90
22192;DHT22;11261;52.456;10.850;2023-06-04T02:55:38;8.90;99.90
22192;DHT22;11261;52.456;10.850;2023-06-04T02:58:06;8.70;99.90
22192;DHT22;11261;52.456;10.850;2023-06-04T03:00:37;8.60;99.90
22192;DHT22;11261;52.456;10.850;2023-06-04T03:03:05;8.70;99.90
22192;DHT22;11261;52.456;10.850;2023-06-04T03:05:34;8.70;99.90
22192;DHT22;11261;52.456;10.850;2023-06-04T03:08:04;8.80;99.90
22192;DHT22;11261;52.456;10.850;2023-06-04T03:10:33;8.80;99.90
22192;DHT22;11261;52.456;10.850;2023-06-04T03:13:01;8.80;99.90
22192;DHT22;11261;52.456;10.850;2023-06-04T03:15:30;8.80;99.90
22192;DHT22;11261;52.456;10.850;2023-06-04T03:17:59;8.80;99.90
22192;DHT22;11261;52.456;10.850;2023-06-04T03:20:28;8.80;99.90
22192;DHT22;11261;52.456;10.850;2023-06-04T03:22:56;8.90;99.90
22192;DHT22;11261;52.456;10.850;2023-06-04T03:25:24;8.90;99.90
22192;DHT22;11261;52.456;10.850;2023-06-04T03:27:53;8.90;99.90
22192;DHT22;11261;52.456;10.850;2023-06-04T03:30:21;8.90;99.90
22192;DHT22;11261;52.456;10.850;2023-06-04T03:32:49;8.90;99.90
22192;DHT22;11261;52.456;10.850;2023-06-04T03:35:19;8.90;99.90
22192;DHT22;11261;52.456;10.850;2023-06-04T03:37:47;9.00;99.90
22192;DHT22;11261;52.456;10.850;2023-06-04T03:40:16;9.10;99.90
22192;DHT22;11261;52.456;10.850;2023-06-04T03:42:44;9.30;99.90
22192;DHT22;11261;52.456;10.850;2023-06-04T03:45:12;9.40;99.90
22192;DHT22;11261;52.456;10.850;2023-06-04T03:47:40;9.50;99.90
22192;DHT22;11261;52.456;10.850;2023-06-04T03:50:09;9.60;99.90
22192;DHT22;11261;52.456;10.850;2023-06-04T03:52:39;9.50;99.90
22192;DHT22;11261;52.456;10.850;2023-06-04T03:55:08;9.50;99.90
22192;DHT22;11261;52.456;10.850;2023-06-04T03:57:38;9.50;99.90
22192;DHT22;11261;52.456;10.850;2023-06-04T04:00:07;9.40;99.90
22192;DHT22;11261;52.456;10.850;2023-06-04T04:02:39;9.40;99.90
22192;DHT22;11261;52.456;10.850;2023-06-04T04:05:08;9.40;99.90
22192;DHT22;11261;52.456;10.850;2023-06-04T04:07:41;9.40;99.90
22192;DHT22;11261;52.456;10.850;2023-06-04T04:10:10;9.30;99.90
22192;DHT22;11261;52.456;10.850;2023-06-04T04:12:38;9.20;99.90
22192;DHT22;11261;52.456;10.850;2023-06-04T04:15:07;9.00;99.90
22192;DHT22;11261;52.456;10.850;2023-06-04T04:17:35;9.20;99.90
22192;DHT22;11261;52.456;10.850;2023-06-04T04:20:04;9.30;99.90
22192;DHT22;11261;52.456;10.850;2023-06-04T04:22:33;9.50;99.90
22192;DHT22;11261;52.456;10.850;2023-06-04T04:25:03;9.60;99.90
22192;DHT22;11261;52.456;10.850;2023-06-04T04:27:31;9.70;99.90
22192;DHT22;11261;52.456;10.850;2023-06-04T04:30:02;9.80;99.90
22192;DHT22;11261;52.456;10.850;2023-06-04T04:32:31;9.90;99.90
22192;DHT22;11261;52.456;10.850;2023-06-04T04:34:59;10.00;99.90
22192;DHT22;11261;52.456;10.850;2023-06-04T04:37:28;10.00;99.90
22192;DHT22;11261;52.456;10.850;2023-06-04T04:39:57;10.10;99.90
22192;DHT22;11261;52.456;10.850;2023-06-04T04:42:26;10.10;99.90
22192;DHT22;11261;52.456;10.850;2023-06-04T04:44:54;10.20;99.90
22192;DHT22;11261;52.456;10.850;2023-06-04T04:47:23;10.10;99.90
22192;DHT22;11261;52.456;10.850;2023-06-04T04:49:51;10.30;99.90
22192;DHT22;11261;52.456;10.850;2023-06-04T04:52:19;10.50;99.90
22192;DHT22;11261;52.456;10.850;2023-06-04T04:54:48;10.80;99.90
22192;DHT22;11261;52.456;10.850;2023-06-04T04:57:16;11.30;99.90
22192;DHT22;11261;52.456;10.850;2023-06-04T04:59:45;12.10;99.90
22192;DHT22;11261;52.456;10.850;2023-06-04T05:02:15;12.00;98.20
22192;DHT22;11261;52.456;10.850;2023-06-04T05:04:43;12.30;97.80
22192;DHT22;11261;52.456;10.850;2023-06-04T05:07:11;12.40;97.20
22192;DHT22;11261;52.456;10.850;2023-06-04T05:09:40;12.70;96.40
22192;DHT22;11261;52.456;10.850;2023-06-04T05:12:08;13.70;94.50
22192;DHT22;11261;52.456;10.850;2023-06-04T05:14:37;14.20;93.10
22192;DHT22;11261;52.456;10.850;2023-06-04T05:17:07;14.70;92.10
22192;DHT22;11261;52.456;10.850;2023-06-04T05:19:37;14.40;90.90
22192;DHT22;11261;52.456;10.850;2023-06-04T05:22:05;14.50;91.90
22192;DHT22;11261;52.456;10.850;2023-06-04T05:24:34;14.10;91.30
22192;DHT22;11261;52.456;10.850;2023-06-04T05:27:03;14.90;91.60
22192;DHT22;11261;52.456;10.850;2023-06-04T05:29:31;15.10;90.30
22192;DHT22;11261;52.456;10.850;2023-06-04T05:31:59;14.60;91.20
22192;DHT22;11261;52.456;10.850;2023-06-04T05:34:29;15.20;90.60
22192;DHT22;11261;52.456;10.850;2023-06-04T05:36:57;15.50;90.20
22192;DHT22;11261;52.456;10.850;2023-06-04T05:39:25;15.80;87.50
22192;DHT22;11261;52.456;10.850;2023-06-04T05:41:54;15.70;87.00
22192;DHT22;11261;52.456;10.850;2023-06-04T05:44:22;15.60;87.60
22192;DHT22;11261;52.456;10.850;2023-06-04T05:46:50;16.00;88.10
22192;DHT22;11261;52.456;10.850;2023-06-04T05:49:19;16.80;86.70
22192;DHT22;11261;52.456;10.850;2023-06-04T05:51:48;16.40;86.30
22192;DHT22;11261;52.456;10.850;2023-06-04T05:54:17;16.40;87.60
22192;DHT22;11261;52.456;10.850;2023-06-04T05:56:45;15.70;90.20
22192;DHT22;11261;52.456;10.850;2023-06-04T05:59:14;15.90;88.30
22192;DHT22;11261;52.456;10.850;2023-06-04T06:01:43;15.30;90.40
22192;DHT22;11261;52.456;10.850;2023-06-04T06:04:11;15.90;91.00
22192;DHT22;11261;52.456;10.850;2023-06-04T06:06:40;16.10;91.00
22192;DHT22;11261;52.456;10.850;2023-06-04T06:09:12;17.80;88.20
22192;DHT22;11261;52.456;10.850;2023-06-04T06:11:40;17.30;89.20
22192;DHT22;11261;52.456;10.850;2023-06-04T06:14:08;16.90;86.60
22192;DHT22;11261;52.456;10.850;2023-06-04T06:16:37;16.50;87.10
22192;DHT22;11261;52.456;10.850;2023-06-04T06:19:05;17.00;86.50
22192;DHT22;11261;52.456;10.850;2023-06-04T06:21:36;17.00;84.60
22192;DHT22;11261;52.456;10.850;2023-06-04T06:24:05;17.30;82.70
22192;DHT22;11261;52.456;10.850;2023-06-04T06:26:34;16.90;83.70
22192;DHT22;11261;52.456;10.850;2023-06-04T06:29:03;16.30;85.50
22192;DHT22;11261;52.456;10.850;2023-06-04T06:31:31;17.80;85.70
22192;DHT22;11261;52.456;10.850;2023-06-04T06:33:59;17.90;81.20
22192;DHT22;11261;52.456;10.850;2023-06-04T06:36:28;17.80;83.60
22192;DHT22;11261;52.456;10.850;2023-06-04T06:38:56;17.70;83.40
22192;DHT22;11261;52.456;10.850;2023-06-04T06:41:24;18.00;81.70
22192;DHT22;11261;52.456;10.850;2023-06-04T06:43:54;17.00;84.30
22192;DHT22;11261;52.456;10.850;2023-06-04T06:46:22;17.70;82.50
22192;DHT22;11261;52.456;10.850;2023-06-04T06:48:51;19.00;81.00
22192;DHT22;11261;52.456;10.850;2023-06-04T06:51:19;19.00;80.10
22192;DHT22;11261;52.456;10.850;2023-06-04T06:53:49;19.50;80.10
22192;DHT22;11261;52.456;10.850;2023-06-04T06:56:17;19.30;77.10
22192;DHT22;11261;52.456;10.850;2023-06-04T06:58:46;17.90;81.20
22192;DHT22;11261;52.456;10.850;2023-06-04T07:01:16;18.50;79.60
22192;DHT22;11261;52.456;10.850;2023-06-04T07:03:45;18.80;79.70
22192;DHT22;11261;52.456;10.850;2023-06-04T07:06:13;19.10;79.80
22192;DHT22;11261;52.456;10.850;2023-06-04T07:08:41;18.50;79.30
22192;DHT22;11261;52.456;10.850;2023-06-04T07:11:10;19.60;79.00
22192;DHT22;11261;52.456;10.850;2023-06-04T07:13:38;21.10;74.50
22192;DHT22;11261;52.456;10.850;2023-06-04T07:16:07;21.20;74.40
22192;DHT22;11261;52.456;10.850;2023-06-04T07:18:37;21.90;72.40
22192;DHT22;11261;52.456;10.850;2023-06-04T07:21:05;22.20;69.50
22192;DHT22;11261;52.456;10.850;2023-06-04T07:23:34;21.40;74.80
22192;DHT22;11261;52.456;10.850;2023-06-04T07:26:02;22.40;68.00
22192;DHT22;11261;52.456;10.850;2023-06-04T07:28:31;21.50;69.00
22192;DHT22;11261;52.456;10.850;2023-06-04T07:31:00;22.40;69.00
22192;DHT22;11261;52.456;10.850;2023-06-04T07:33:28;22.80;70.50
22192;DHT22;11261;52.456;10.850;2023-06-04T07:35:58;21.80;68.10
22192;DHT22;11261;52.456;10.850;2023-06-04T07:38:26;21.80;69.70
22192;DHT22;11261;52.456;10.850;2023-06-04T07:40:54;22.20;68.90
22192;DHT22;11261;52.456;10.850;2023-06-04T07:43:23;22.20;70.90
22192;DHT22;11261;52.456;10.850;2023-06-04T07:45:51;22.70;66.70
22192;DHT22;11261;52.456;10.850;2023-06-04T07:48:20;23.60;67.10
22192;DHT22;11261;52.456;10.850;2023-06-04T07:50:48;23.00;66.10
22192;DHT22;11261;52.456;10.850;2023-06-04T07:53:18;23.20;65.80
22192;DHT22;11261;52.456;10.850;2023-06-04T07:55:46;22.60;71.70
22192;DHT22;11261;52.456;10.850;2023-06-04T07:58:14;21.80;66.50
22192;DHT22;11261;52.456;10.850;2023-06-04T08:00:43;21.70;70.20
22192;DHT22;11261;52.456;10.850;2023-06-04T08:03:12;23.00;66.40
22192;DHT22;11261;52.456;10.850;2023-06-04T08:05:42;24.30;64.60
22192;DHT22;11261;52.456;10.850;2023-06-04T08:08:11;25.40;67.80
22192;DHT22;11261;52.456;10.850;2023-06-04T08:10:40;24.80;60.70
22192;DHT22;11261;52.456;10.850;2023-06-04T08:13:09;24.10;66.30
22192;DHT22;11261;52.456;10.850;2023-06-04T08:15:37;24.50;64.70
22192;DHT22;11261;52.456;10.850;2023-06-04T08:18:05;24.70;65.50
22192;DHT22;11261;52.456;10.850;2023-06-04T08:20:34;25.70;59.50
22192;DHT22;11261;52.456;10.850;2023-06-04T08:23:02;25.40;59.40
22192;DHT22;11261;52.456;10.850;2023-06-04T08:25:30;24.10;60.10
22192;DHT22;11261;52.456;10.850;2023-06-04T08:28:01;23.00;61.30
22192;DHT22;11261;52.456;10.850;2023-06-04T08:30:30;23.80;62.60
22192;DHT22;11261;52.456;10.850;2023-06-04T08:32:58;23.40;58.50
22192;DHT22;11261;52.456;10.850;2023-06-04T08:35:27;22.90;60.80
22192;DHT22;11261;52.456;10.850;2023-06-04T08:37:55;23.20;60.80
22192;DHT22;11261;52.456;10.850;2023-06-04T08:40:24;22.60;58.20
22192;DHT22;11261;52.456;10.850;2023-06-04T08:42:55;22.20;56.30
22192;DHT22;11261;52.456;10.850;2023-06-04T08:45:26;23.00;54.60
22192;DHT22;11261;52.456;10.850;2023-06-04T08:47:56;23.80;52.50
22192;DHT22;11261;52.456;10.850;2023-06-04T08:50:25;23.20;54.20
22192;DHT22;11261;52.456;10.850;2023-06-04T08:52:54;23.70;55.80
22192;DHT22;11261;52.456;10.850;2023-06-04T08:55:23;25.00;54.70
22192;DHT22;11261;52.456;10.850;2023-06-04T08:57:52;25.20;51.60
22192;DHT22;11261;52.456;10.850;2023-06-04T09:00:21;24.40;49.20
22192;DHT22;11261;52.456;10.850;2023-06-04T09:02:51;25.70;50.20
22192;DHT22;11261;52.456;10.850;2023-06-04T09:05:21;25.80;49.50
22192;DHT22;11261;52.456;10.850;2023-06-04T09:07:52;26.40;54.30
22192;DHT22;11261;52.456;10.850;2023-06-04T09:10:23;24.30;50.20
22192;DHT22;11261;52.456;10.850;2023-06-04T09:12:54;24.70;58.10
22192;DHT22;11261;52.456;10.850;2023-06-04T09:15:25;24.00;50.80
22192;DHT22;11261;52.456;10.850;2023-06-04T09:17:54;25.20;52.20
22192;DHT22;11261;52.456;10.850;2023-06-04T09:20:24;25.00;50.70
22192;DHT22;11261;52.456;10.850;2023-06-04T09:22:52;25.60;51.50
22192;DHT22;11261;52.456;10.850;2023-06-04T09:25:21;26.70;57.10
22192;DHT22;11261;52.456;10.850;2023-06-04T09:27:50;27.10;55.30
22192;DHT22;11261;52.456;10.850;2023-06-04T09:30:19;27.60;54.20
22192;DHT22;11261;52.456;10.850;2023-06-04T09:32:47;28.60;54.40
22192;DHT22;11261;52.456;10.850;2023-06-04T09:35:18;28.60;53.10
22192;DHT22;11261;52.456;10.850;2023-06-04T09:37:55;28.00;52.70
22192;DHT22;11261;52.456;10.850;2023-06-04T09:40:24;29.30;52.30
22192;DHT22;11261;52.456;10.850;2023-06-04T09:42:52;27.60;47.00
22192;DHT22;11261;52.456;10.850;2023-06-04T09:45:29;27.20;52.60
22192;DHT22;11261;52.456;10.850;2023-06-04T09:47:58;28.70;50.50
22192;DHT22;11261;52.456;10.850;2023-06-04T09:50:30;27.50;47.50
22192;DHT22;11261;52.456;10.850;2023-06-04T09:52:59;26.40;55.40
22192;DHT22;11261;52.456;10.850;2023-06-04T09:55:28;28.20;53.80
22192;DHT22;11261;52.456;10.850;2023-06-04T09:57:58;28.10;51.00
22192;DHT22;11261;52.456;10.850;2023-06-04T10:00:27;28.60;52.50
22192;DHT22;11261;52.456;10.850;2023-06-04T10:02:59;29.50;49.80
22192;DHT22;11261;52.456;10.850;2023-06-04T10:05:32;27.60;44.70
22192;DHT22;11261;52.456;10.850;2023-06-04T10:08:03;25.80;49.40
22192;DHT22;11261;52.456;10.850;2023-06-04T10:10:35;26.30;45.00
22192;DHT22;11261;52.456;10.850;2023-06-04T10:13:07;25.50;49.60
22192;DHT22;11261;52.456;10.850;2023-06-04T10:15:38;27.20;47.50
22192;DHT22;11261;52.456;10.850;2023-06-04T10:18:07;27.60;47.10
22192;DHT22;11261;52.456;10.850;2023-06-04T10:20:37;28.00;47.90
22192;DHT22;11261;52.456;10.850;2023-06-04T10:23:06;23.80;47.30
22192;DHT22;11261;52.456;10.850;2023-06-04T10:25:35;26.70;51.50
22192;DHT22;11261;52.456;10.850;2023-06-04T10:28:04;26.10;45.30
22192;DHT22;11261;52.456;10.850;2023-06-04T10:30:32;25.20;45.80
22192;DHT22;11261;52.456;10.850;2023-06-04T10:33:01;24.50;47.50
22192;DHT22;11261;52.456;10.850;2023-06-04T10:35:30;25.50;47.50
22192;DHT22;11261;52.456;10.850;2023-06-04T10:38:11;24.90;47.80
22192;DHT22;11261;52.456;10.850;2023-06-04T10:40:40;23.20;49.20
22192;DHT22;11261;52.456;10.850;2023-06-04T10:43:10;23.30;54.10
22192;DHT22;11261;52.456;10.850;2023-06-04T10:45:40;23.50;48.60
22192;DHT22;11261;52.456;10.850;2023-06-04T10:48:11;23.70;48.10
22192;DHT22;11261;52.456;10.850;2023-06-04T10:50:49;25.30;48.20
22192;DHT22;11261;52.456;10.850;2023-06-04T10:53:19;25.40;49.70
22192;DHT22;11261;52.456;10.850;2023-06-04T10:55:49;23.60;48.40
22192;DHT22;11261;52.456;10.850;2023-06-04T10:58:18;24.30;47.20
22192;DHT22;11261;52.456;10.850;2023-06-04T11:00:47;24.50;47.50
22192;DHT22;11261;52.456;10.850;2023-06-04T11:03:17;26.30;51.60
22192;DHT22;11261;52.456;10.850;2023-06-04T11:05:47;26.80;46.40
22192;DHT22;11261;52.456;10.850;2023-06-04T11:08:28;24.00;45.90
22192;DHT22;11261;52.456;10.850;2023-06-04T11:10:57;23.70;51.30
22192;DHT22;11261;52.456;10.850;2023-06-04T11:13:25;26.20;49.40
22192;DHT22;11261;52.456;10.850;2023-06-04T11:15:54;27.70;48.50
22192;DHT22;11261;52.456;10.850;2023-06-04T11:18:23;26.90;44.60
22192;DHT22;11261;52.456;10.850;2023-06-04T11:20:59;24.20;48.00
22192;DHT22;11261;52.456;10.850;2023-06-04T11:23:29;23.70;49.90
22192;DHT22;11261;52.456;10.850;2023-06-04T11:25:58;23.50;50.00
22192;DHT22;11261;52.456;10.850;2023-06-04T11:28:27;23.30;50.50
22192;DHT22;11261;52.456;10.850;2023-06-04T11:30:59;23.00;50.40
22192;DHT22;11261;52.456;10.850;2023-06-04T11:33:30;22.90;50.30
22192;DHT22;11261;52.456;10.850;2023-06-04T11:35:59;24.40;52.20
22192;DHT22;11261;52.456;10.850;2023-06-04T11:38:29;26.20;49.30
22192;DHT22;11261;52.456;10.850;2023-06-04T11:40:58;23.80;48.80
22192;DHT22;11261;52.456;10.850;2023-06-04T11:43:27;23.50;49.00
22192;DHT22;11261;52.456;10.850;2023-06-04T11:45:56;23.70;48.60
22192;DHT22;11261;52.456;10.850;2023-06-04T11:48:25;25.30;49.70
22192;DHT22;11261;52.456;10.850;2023-06-04T11:50:53;25.70;49.50
22192;DHT22;11261;52.456;10.850;2023-06-04T11:53:22;25.10;46.90
22192;DHT22;11261;52.456;10.850;2023-06-04T11:55:52;27.10;48.10
22192;DHT22;11261;52.456;10.850;2023-06-04T11:58:20;27.20;44.70
22192;DHT22;11261;52.456;10.850;2023-06-04T12:00:49;27.20;46.10
22192;DHT22;11261;52.456;10.850;2023-06-04T12:03:17;25.50;50.70
22192;DHT22;11261;52.456;10.850;2023-06-04T12:05:45;25.00;46.20
22192;DHT22;11261;52.456;10.850;2023-06-04T12:08:14;24.50;47.80
22192;DHT22;11261;52.456;10.850;2023-06-04T12:10:43;26.00;49.10
22192;DHT22;11261;52.456;10.850;2023-06-04T12:13:13;27.20;49.20
22192;DHT22;11261;52.456;10.850;2023-06-04T12:15:42;28.20;49.40
22192;DHT22;11261;52.456;10.850;2023-06-04T12:18:10;28.50;48.30
22192;DHT22;11261;52.456;10.850;2023-06-04T12:20:40;28.10;47.80
22192;DHT22;11261;52.456;10.850;2023-06-04T12:23:19;28.10;45.60
22192;DHT22;11261;52.456;10.850;2023-06-04T12:25:50;28.20;45.60
22192;DHT22;11261;52.456;10.850;2023-06-04T12:28:20;26.00;48.80
22192;DHT22;11261;52.456;10.850;2023-06-04T12:30:48;26.30;46.70
22192;DHT22;11261;52.456;10.850;2023-06-04T12:33:16;24.80;47.70
22192;DHT22;11261;52.456;10.850;2023-06-04T12:35:45;25.90;49.90
22192;DHT22;11261;52.456;10.850;2023-06-04T12:38:13;27.50;48.00
22192;DHT22;11261;52.456;10.850;2023-06-04T12:40:41;24.40;46.20
22192;DHT22;11261;52.456;10.850;2023-06-04T12:43:09;24.00;48.20
22192;DHT22;11261;52.456;10.850;2023-06-04T12:45:39;25.90;49.60
22192;DHT22;11261;52.456;10.850;2023-06-04T12:48:07;25.10;49.40
22192;DHT22;11261;52.456;10.850;2023-06-04T12:50:35;26.10;51.10
22192;DHT22;11261;52.456;10.850;2023-06-04T12:53:03;27.40;48.10
22192;DHT22;11261;52.456;10.850;2023-06-04T12:55:32;26.70;50.40
22192;DHT22;11261;52.456;10.850;2023-06-04T12:58:00;27.40;48.40
22192;DHT22;11261;52.456;10.850;2023-06-04T13:00:28;28.30;48.80
22192;DHT22;11261;52.456;10.850;2023-06-04T13:02:58;27.50;44.30
22192;DHT22;11261;52.456;10.850;2023-06-04T13:05:27;24.40;46.20
22192;DHT22;11261;52.456;10.850;2023-06-04T13:07:56;24.50;49.30
22192;DHT22;11261;52.456;10.850;2023-06-04T13:10:24;24.70;47.80
22192;DHT22;11261;52.456;10.850;2023-06-04T13:12:52;25.20;47.40
22192;DHT22;11261;52.456;10.850;2023-06-04T13:15:20;23.60;48.80
22192;DHT22;11261;52.456;10.850;2023-06-04T13:17:49;24.20;49.20
22192;DHT22;11261;52.456;10.850;2023-06-04T13:20:19;26.20;51.60
22192;DHT22;11261;52.456;10.850;2023-06-04T13:22:47;26.00;48.90
22192;DHT22;11261;52.456;10.850;2023-06-04T13:25:15;26.70;47.30
22192;DHT22;11261;52.456;10.850;2023-06-04T13:27:44;26.10;46.40
22192;DHT22;11261;52.456;10.850;2023-06-04T13:30:13;24.20;48.30
22192;DHT22;11261;52.456;10.850;2023-06-04T13:32:41;23.70;48.70
22192;DHT22;11261;52.456;10.850;2023-06-04T13:35:09;24.00;48.40
22192;DHT22;11261;52.456;10.850;2023-06-04T13:37:39;24.10;48.20
22192;DHT22;11261;52.456;10.850;2023-06-04T13:40:08;24.90;48.20
22192;DHT22;11261;52.456;10.850;2023-06-04T13:42:37;24.30;47.70
22192;DHT22;11261;52.456;10.850;2023-06-04T13:45:06;25.80;48.60
22192;DHT22;11261;52.456;10.850;2023-06-04T13:47:34;26.40;45.60
22192;DHT22;11261;52.456;10.850;2023-06-04T13:50:04;24.50;46.40
22192;DHT22;11261;52.456;10.850;2023-06-04T13:52:33;25.90;49.80
22192;DHT22;11261;52.456;10.850;2023-06-04T13:55:03;27.10;48.20
22192;DHT22;11261;52.456;10.850;2023-06-04T13:57:31;28.10;48.20
22192;DHT22;11261;52.456;10.850;2023-06-04T14:00:00;28.70;47.80
22192;DHT22;11261;52.456;10.850;2023-06-04T14:02:28;28.70;47.00
22192;DHT22;11261;52.456;10.850;2023-06-04T14:04:56;27.70;44.60
22192;DHT22;11261;52.456;10.850;2023-06-04T14:07:25;26.60;45.70
22192;DHT22;11261;52.456;10.850;2023-06-04T14:09:53;25.90;48.50
22192;DHT22;11261;52.456;10.850;2023-06-04T14:12:24;24.70;48.20
22192;DHT22;11261;52.456;10.850;2023-06-04T14:14:52;25.40;46.70
22192;DHT22;11261;52.456;10.850;2023-06-04T14:17:21;26.30;46.30
22192;DHT22;11261;52.456;10.850;2023-06-04T14:19:49;26.30;45.60
22192;DHT22;11261;52.456;10.850;2023-06-04T14:22:18;24.90;47.90
22192;DHT22;11261;52.456;10.850;2023-06-04T14:24:46;24.20;48.70
22192;DHT22;11261;52.456;10.850;2023-06-04T14:27:14;23.80;49.50
22192;DHT22;11261;52.456;10.850;2023-06-04T14:29:44;24.60;47.10
22192;DHT22;11261;52.456;10.850;2023-06-04T14:32:12;24.30;47.70
22192;DHT22;11261;52.456;10.850;2023-06-04T14:34:41;24.50;48.80
22192;DHT22;11261;52.456;10.850;2023-06-04T14:37:09;24.60;48.00
22192;DHT22;11261;52.456;10.850;2023-06-04T14:39:37;25.60;46.60
22192;DHT22;11261;52.456;10.850;2023-06-04T14:42:06;23.90;47.60
22192;DHT22;11261;52.456;10.850;2023-06-04T14:44:34;23.90;48.20
22192;DHT22;11261;52.456;10.850;2023-06-04T14:47:04;23.70;48.40
22192;DHT22;11261;52.456;10.850;2023-06-04T14:49:33;26.00;49.50
22192;DHT22;11261;52.456;10.850;2023-06-04T14:52:01;25.50;46.60
22192;DHT22;11261;52.456;10.850;2023-06-04T14:54:29;23.90;48.50
22192;DHT22;11261;52.456;10.850;2023-06-04T14:56:58;23.50;48.40
22192;DHT22;11261;52.456;10.850;2023-06-04T14:59:26;24.10;49.30
22192;DHT22;11261;52.456;10.850;2023-06-04T15:01:54;25.00;48.10
22192;DHT22;11261;52.456;10.850;2023-06-04T15:04:24;24.60;48.40
22192;DHT22;11261;52.456;10.850;2023-06-04T15:06:52;25.70;48.30
22192;DHT22;11261;52.456;10.850;2023-06-04T15:09:21;24.80;48.20
22192;DHT22;11261;52.456;10.850;2023-06-04T15:11:49;24.20;48.30
22192;DHT22;11261;52.456;10.850;2023-06-04T15:14:17;23.80;49.40
22192;DHT22;11261;52.456;10.850;2023-06-04T15:16:46;23.30;48.30
22192;DHT22;11261;52.456;10.850;2023-06-04T15:19:14;24.50;51.10
22192;DHT22;11261;52.456;10.850;2023-06-04T15:21:44;26.10;48.20
22192;DHT22;11261;52.456;10.850;2023-06-04T15:24:13;26.50;46.80
22192;DHT22;11261;52.456;10.850;2023-06-04T15:26:41;24.40;46.80
22192;DHT22;11261;52.456;10.850;2023-06-04T15:29:10;25.10;49.10